sensor_id;sensor_type;location;lat;lon;timestamp;P1;durP1;ratioP1;P2;durP2;ratioP2
32734;SDS011;19112;51.076;3.706;2022-10-04T00:01:55;31.02;;;10.18;;
32734;SDS011;19112;51.076;3.706;2022-10-04T00:04:47;31.05;;;10.85;;
32734;SDS011;19112;51.076;3.706;2022-10-04T00:07:29;30.13;;;10.23;;
32734;SDS011;19112;51.076;3.706;2022-10-04T00:10:24;26.55;;;10.13;;
32734;SDS011;19112;51.076;3.706;2022-10-04T00:12:58;29.40;;;10.07;;
32734;SDS011;19112;51.076;3.706;2022-10-04T00:15:35;33.03;;;11.20;;
32734;SDS011;19112;51.076;3.706;2022-10-04T00:21:02;30.48;;;10.80;;
32734;SDS011;19112;51.076;3.706;2022-10-04T00:28:59;33.58;;;10.88;;
32734;SDS011;19112;51.076;3.706;2022-10-04T00:37:01;31.60;;;12.27;;
32734;SDS011;19112;51.076;3.706;2022-10-04T00:39:37;35.80;;;12.45;;
32734;SDS011;19112;51.076;3.706;2022-10-04T00:42:30;30.17;;;12.18;;
32734;SDS011;19112;51.076;3.706;2022-10-04T00:45:41;32.83;;;11.63;;
32734;SDS011;19112;51.076;3.706;2022-10-04T00:48:14;30.45;;;11.15;;
32734;SDS011;19112;51.076;3.706;2022-10-04T00:54:07;26.17;;;11.43;;
32734;SDS011;19112;51.076;3.706;2022-10-04T00:56:48;29.10;;;11.90;;
32734;SDS011;19112;51.076;3.706;2022-10-04T01:02:21;30.70;;;11.27;;
32734;SDS011;19112;51.076;3.706;2022-10-04T01:07:27;33.70;;;11.95;;
32734;SDS011;19112;51.076;3.706;2022-10-04T01:10:19;30.00;;;12.65;;
32734;SDS011;19112;51.076;3.706;2022-10-04T01:18:35;37.45;;;14.02;;
32734;SDS011;19112;51.076;3.706;2022-10-04T01:23:47;37.67;;;14.85;;
32734;SDS011;19112;51.076;3.706;2022-10-04T01:26:39;36.78;;;14.55;;
32734;SDS011;19112;51.076;3.706;2022-10-04T01:29:09;32.17;;;14.65;;
32734;SDS011;19112;51.076;3.706;2022-10-04T01:32:00;41.70;;;15.32;;
32734;SDS011;19112;51.076;3.706;2022-10-04T01:34:27;36.97;;;14.23;;
32734;SDS011;19112;51.076;3.706;2022-10-04T01:36:55;35.30;;;13.98;;
32734;SDS011;19112;51.076;3.706;2022-10-04T01:39:24;37.17;;;14.15;;
32734;SDS011;19112;51.076;3.706;2022-10-04T01:47:33;31.42;;;14.13;;
32734;SDS011;19112;51.076;3.706;2022-10-04T01:50:38;32.42;;;14.57;;
32734;SDS011;19112;51.076;3.706;2022-10-04T01:53:17;35.87;;;15.20;;
32734;SDS011;19112;51.076;3.706;2022-10-04T01:56:13;34.72;;;15.85;;
32734;SDS011;19112;51.076;3.706;2022-10-04T02:01:18;40.50;;;15.27;;
32734;SDS011;19112;51.076;3.706;2022-10-04T02:04:07;34.67;;;15.85;;
32734;SDS011;19112;51.076;3.706;2022-10-04T02:06:40;36.65;;;14.60;;
32734;SDS011;19112;51.076;3.706;2022-10-04T02:09:09;30.50;;;13.70;;
32734;SDS011;19112;51.076;3.706;2022-10-04T02:11:40;35.53;;;14.25;;
32734;SDS011;19112;51.076;3.706;2022-10-04T02:14:12;29.83;;;14.00;;
32734;SDS011;19112;51.076;3.706;2022-10-04T02:16:42;38.65;;;15.90;;
32734;SDS011;19112;51.076;3.706;2022-10-04T02:19:11;34.47;;;14.07;;
32734;SDS011;19112;51.076;3.706;2022-10-04T02:21:39;34.97;;;15.60;;
32734;SDS011;19112;51.076;3.706;2022-10-04T02:24:06;33.20;;;14.73;;
32734;SDS011;19112;51.076;3.706;2022-10-04T02:26:34;44.53;;;15.70;;
32734;SDS011;19112;51.076;3.706;2022-10-04T02:29:00;32.30;;;13.85;;
32734;SDS011;19112;51.076;3.706;2022-10-04T02:31:26;36.47;;;15.45;;
32734;SDS011;19112;51.076;3.706;2022-10-04T02:34:11;36.70;;;15.95;;
32734;SDS011;19112;51.076;3.706;2022-10-04T02:36:38;34.55;;;15.30;;
32734;SDS011;19112;51.076;3.706;2022-10-04T02:39:16;42.30;;;16.95;;
32734;SDS011;19112;51.076;3.706;2022-10-04T02:44:48;42.05;;;16.83;;
32734;SDS011;19112;51.076;3.706;2022-10-04T02:47:50;37.17;;;15.98;;
32734;SDS011;19112;51.076;3.706;2022-10-04T02:50:29;43.90;;;17.10;;
32734;SDS011;19112;51.076;3.706;2022-10-04T02:53:01;38.42;;;15.48;;
32734;SDS011;19112;51.076;3.706;2022-10-04T02:56:01;37.90;;;16.15;;
32734;SDS011;19112;51.076;3.706;2022-10-04T02:58:29;40.03;;;17.27;;
32734;SDS011;19112;51.076;3.706;2022-10-04T03:00:57;41.03;;;16.48;;
32734;SDS011;19112;51.076;3.706;2022-10-04T03:03:25;49.97;;;17.25;;
32734;SDS011;19112;51.076;3.706;2022-10-04T03:06:08;33.75;;;16.45;;
32734;SDS011;19112;51.076;3.706;2022-10-04T03:08:45;38.50;;;16.80;;
32734;SDS011;19112;51.076;3.706;2022-10-04T03:11:24;38.33;;;15.45;;
32734;SDS011;19112;51.076;3.706;2022-10-04T03:13:56;35.88;;;15.02;;
32734;SDS011;19112;51.076;3.706;2022-10-04T03:16:25;36.88;;;15.05;;
32734;SDS011;19112;51.076;3.706;2022-10-04T03:18:52;45.25;;;16.48;;
32734;SDS011;19112;51.076;3.706;2022-10-04T03:21:20;41.50;;;16.52;;
32734;SDS011;19112;51.076;3.706;2022-10-04T03:23:48;37.72;;;17.40;;
32734;SDS011;19112;51.076;3.706;2022-10-04T03:28:56;45.53;;;16.50;;
32734;SDS011;19112;51.076;3.706;2022-10-04T03:31:24;33.95;;;16.08;;
32734;SDS011;19112;51.076;3.706;2022-10-04T03:33:56;38.03;;;14.90;;
32734;SDS011;19112;51.076;3.706;2022-10-04T03:36:23;35.88;;;15.57;;
32734;SDS011;19112;51.076;3.706;2022-10-04T03:38:51;38.47;;;16.23;;
32734;SDS011;19112;51.076;3.706;2022-10-04T03:41:21;40.30;;;16.80;;
32734;SDS011;19112;51.076;3.706;2022-10-04T03:43:49;37.60;;;16.70;;
32734;SDS011;19112;51.076;3.706;2022-10-04T03:46:18;38.95;;;17.20;;
32734;SDS011;19112;51.076;3.706;2022-10-04T03:48:47;36.42;;;17.23;;
32734;SDS011;19112;51.076;3.706;2022-10-04T03:51:17;41.70;;;18.35;;
32734;SDS011;19112;51.076;3.706;2022-10-04T03:53:46;43.05;;;17.73;;
32734;SDS011;19112;51.076;3.706;2022-10-04T03:56:20;40.08;;;16.77;;
32734;SDS011;19112;51.076;3.706;2022-10-04T03:58:53;38.97;;;15.27;;
32734;SDS011;19112;51.076;3.706;2022-10-04T04:06:51;40.83;;;16.85;;
32734;SDS011;19112;51.076;3.706;2022-10-04T04:09:36;42.63;;;17.65;;
32734;SDS011;19112;51.076;3.706;2022-10-04T04:14:59;36.53;;;16.58;;
32734;SDS011;19112;51.076;3.706;2022-10-04T04:20:01;45.60;;;18.73;;
32734;SDS011;19112;51.076;3.706;2022-10-04T04:22:32;36.38;;;15.43;;
32734;SDS011;19112;51.076;3.706;2022-10-04T04:24:59;41.90;;;16.77;;
32734;SDS011;19112;51.076;3.706;2022-10-04T04:27:28;34.72;;;16.23;;
32734;SDS011;19112;51.076;3.706;2022-10-04T04:29:59;32.08;;;15.38;;
32734;SDS011;19112;51.076;3.706;2022-10-04T04:32:30;38.72;;;15.27;;
32734;SDS011;19112;51.076;3.706;2022-10-04T04:35:00;37.55;;;15.07;;
32734;SDS011;19112;51.076;3.706;2022-10-04T04:37:36;38.17;;;16.02;;
32734;SDS011;19112;51.076;3.706;2022-10-04T04:40:19;37.55;;;14.93;;
32734;SDS011;19112;51.076;3.706;2022-10-04T04:42:49;35.42;;;15.77;;
32734;SDS011;19112;51.076;3.706;2022-10-04T04:45:17;35.63;;;15.02;;
32734;SDS011;19112;51.076;3.706;2022-10-04T04:47:51;36.67;;;16.45;;
32734;SDS011;19112;51.076;3.706;2022-10-04T04:50:31;34.45;;;16.05;;
32734;SDS011;19112;51.076;3.706;2022-10-04T04:53:06;33.75;;;15.35;;
32734;SDS011;19112;51.076;3.706;2022-10-04T04:55:42;38.17;;;16.02;;
32734;SDS011;19112;51.076;3.706;2022-10-04T04:58:32;36.30;;;15.10;;
32734;SDS011;19112;51.076;3.706;2022-10-04T05:01:45;35.05;;;15.57;;
32734;SDS011;19112;51.076;3.706;2022-10-04T05:04:01;40.10;;;15.65;;
32734;SDS011;19112;51.076;3.706;2022-10-04T05:06:30;39.35;;;15.60;;
32734;SDS011;19112;51.076;3.706;2022-10-04T05:08:58;37.15;;;15.77;;
32734;SDS011;19112;51.076;3.706;2022-10-04T05:11:34;36.47;;;16.77;;
32734;SDS011;19112;51.076;3.706;2022-10-04T05:14:09;37.60;;;15.55;;
32734;SDS011;19112;51.076;3.706;2022-10-04T05:19:22;39.03;;;17.30;;
32734;SDS011;19112;51.076;3.706;2022-10-04T05:21:55;36.85;;;14.90;;
32734;SDS011;19112;51.076;3.706;2022-10-04T05:24:28;38.22;;;14.65;;
32734;SDS011;19112;51.076;3.706;2022-10-04T05:27:03;33.65;;;15.15;;
32734;SDS011;19112;51.076;3.706;2022-10-04T05:35:45;34.40;;;15.45;;
32734;SDS011;19112;51.076;3.706;2022-10-04T05:41:16;34.38;;;15.90;;
32734;SDS011;19112;51.076;3.706;2022-10-04T05:43:55;30.45;;;13.98;;
32734;SDS011;19112;51.076;3.706;2022-10-04T05:46:22;32.97;;;14.75;;
32734;SDS011;19112;51.076;3.706;2022-10-04T05:49:10;38.33;;;15.70;;
32734;SDS011;19112;51.076;3.706;2022-10-04T05:51:50;36.33;;;15.25;;
32734;SDS011;19112;51.076;3.706;2022-10-04T05:54:26;33.85;;;14.77;;
32734;SDS011;19112;51.076;3.706;2022-10-04T05:59:47;36.53;;;16.88;;
32734;SDS011;19112;51.076;3.706;2022-10-04T06:02:39;37.22;;;16.30;;
32734;SDS011;19112;51.076;3.706;2022-10-04T06:11:23;33.88;;;16.05;;
32734;SDS011;19112;51.076;3.706;2022-10-04T06:20:53;35.35;;;16.65;;
32734;SDS011;19112;51.076;3.706;2022-10-04T06:26:37;39.35;;;17.67;;
32734;SDS011;19112;51.076;3.706;2022-10-04T06:29:18;39.97;;;17.90;;
32734;SDS011;19112;51.076;3.706;2022-10-04T06:31:54;43.03;;;18.25;;
32734;SDS011;19112;51.076;3.706;2022-10-04T06:44:25;41.38;;;17.15;;
32734;SDS011;19112;51.076;3.706;2022-10-04T06:50:25;41.75;;;18.42;;
32734;SDS011;19112;51.076;3.706;2022-10-04T07:01:56;43.30;;;17.90;;
32734;SDS011;19112;51.076;3.706;2022-10-04T07:04:32;38.17;;;17.58;;
32734;SDS011;19112;51.076;3.706;2022-10-04T07:12:38;42.50;;;17.73;;
32734;SDS011;19112;51.076;3.706;2022-10-04T07:15:11;42.55;;;17.42;;
32734;SDS011;19112;51.076;3.706;2022-10-04T07:17:47;40.50;;;18.13;;
32734;SDS011;19112;51.076;3.706;2022-10-04T07:20:26;35.25;;;16.88;;
32734;SDS011;19112;51.076;3.706;2022-10-04T07:23:44;37.72;;;16.60;;
32734;SDS011;19112;51.076;3.706;2022-10-04T07:25:53;42.58;;;17.05;;
32734;SDS011;19112;51.076;3.706;2022-10-04T07:28:30;36.20;;;17.40;;
32734;SDS011;19112;51.076;3.706;2022-10-04T07:31:24;38.38;;;16.20;;
32734;SDS011;19112;51.076;3.706;2022-10-04T07:33:55;33.45;;;16.45;;
32734;SDS011;19112;51.076;3.706;2022-10-04T07:36:38;37.00;;;17.00;;
32734;SDS011;19112;51.076;3.706;2022-10-04T07:39:14;37.60;;;15.85;;
32734;SDS011;19112;51.076;3.706;2022-10-04T07:41:52;38.88;;;17.42;;
32734;SDS011;19112;51.076;3.706;2022-10-04T07:44:35;37.95;;;17.13;;
32734;SDS011;19112;51.076;3.706;2022-10-04T07:47:10;36.80;;;15.15;;
32734;SDS011;19112;51.076;3.706;2022-10-04T07:49:44;38.10;;;16.58;;
32734;SDS011;19112;51.076;3.706;2022-10-04T08:00:52;38.90;;;15.93;;
32734;SDS011;19112;51.076;3.706;2022-10-04T08:21:04;37.03;;;14.77;;
32734;SDS011;19112;51.076;3.706;2022-10-04T08:30:00;33.35;;;14.85;;
32734;SDS011;19112;51.076;3.706;2022-10-04T08:35:27;35.88;;;13.90;;
32734;SDS011;19112;51.076;3.706;2022-10-04T08:55:49;31.98;;;13.50;;
32734;SDS011;19112;51.076;3.706;2022-10-04T09:02:10;27.45;;;12.88;;
32734;SDS011;19112;51.076;3.706;2022-10-04T09:17:19;29.80;;;12.17;;
32734;SDS011;19112;51.076;3.706;2022-10-04T09:38:00;27.40;;;11.57;;
32734;SDS011;19112;51.076;3.706;2022-10-04T09:49:45;26.27;;;11.45;;
32734;SDS011;19112;51.076;3.706;2022-10-04T09:56:46;24.63;;;10.65;;
32734;SDS011;19112;51.076;3.706;2022-10-04T10:18:16;26.13;;;10.00;;
32734;SDS011;19112;51.076;3.706;2022-10-04T10:24:03;26.38;;;9.35;;
32734;SDS011;19112;51.076;3.706;2022-10-04T10:27:12;19.17;;;8.77;;
32734;SDS011;19112;51.076;3.706;2022-10-04T10:41:55;26.02;;;9.75;;
32734;SDS011;19112;51.076;3.706;2022-10-04T10:44:56;23.23;;;10.32;;
32734;SDS011;19112;51.076;3.706;2022-10-04T10:50:53;23.63;;;9.35;;
32734;SDS011;19112;51.076;3.706;2022-10-04T10:56:41;22.35;;;9.00;;
32734;SDS011;19112;51.076;3.706;2022-10-04T11:02:26;21.75;;;8.23;;
32734;SDS011;19112;51.076;3.706;2022-10-04T11:11:20;18.70;;;7.43;;
32734;SDS011;19112;51.076;3.706;2022-10-04T11:26:54;18.52;;;7.25;;
32734;SDS011;19112;51.076;3.706;2022-10-04T11:30:08;22.20;;;7.68;;
32734;SDS011;19112;51.076;3.706;2022-10-04T11:33:55;21.83;;;7.38;;
32734;SDS011;19112;51.076;3.706;2022-10-04T11:42:15;30.20;;;8.15;;
32734;SDS011;19112;51.076;3.706;2022-10-04T11:51:08;18.85;;;7.35;;
32734;SDS011;19112;51.076;3.706;2022-10-04T11:54:10;17.35;;;6.82;;
32734;SDS011;19112;51.076;3.706;2022-10-04T11:57:42;20.02;;;6.85;;
32734;SDS011;19112;51.076;3.706;2022-10-04T12:00:56;18.33;;;7.55;;
32734;SDS011;19112;51.076;3.706;2022-10-04T12:15:35;19.90;;;7.53;;
32734;SDS011;19112;51.076;3.706;2022-10-04T12:21:28;21.77;;;6.63;;
32734;SDS011;19112;51.076;3.706;2022-10-04T12:33:28;23.63;;;6.97;;
32734;SDS011;19112;51.076;3.706;2022-10-04T12:38:46;20.75;;;6.80;;
32734;SDS011;19112;51.076;3.706;2022-10-04T12:41:28;15.15;;;6.15;;
32734;SDS011;19112;51.076;3.706;2022-10-04T12:44:15;13.98;;;5.20;;
32734;SDS011;19112;51.076;3.706;2022-10-04T12:50:37;17.45;;;6.10;;
32734;SDS011;19112;51.076;3.706;2022-10-04T12:53:17;15.38;;;6.03;;
32734;SDS011;19112;51.076;3.706;2022-10-04T12:56:37;17.20;;;6.13;;
32734;SDS011;19112;51.076;3.706;2022-10-04T13:02:52;16.27;;;6.03;;
32734;SDS011;19112;51.076;3.706;2022-10-04T13:05:59;17.40;;;6.45;;
32734;SDS011;19112;51.076;3.706;2022-10-04T13:08:53;19.90;;;6.82;;
32734;SDS011;19112;51.076;3.706;2022-10-04T13:14:41;16.13;;;5.53;;
32734;SDS011;19112;51.076;3.706;2022-10-04T13:17:27;13.55;;;5.45;;
32734;SDS011;19112;51.076;3.706;2022-10-04T13:20:19;17.33;;;5.53;;
32734;SDS011;19112;51.076;3.706;2022-10-04T13:29:27;15.63;;;5.40;;
32734;SDS011;19112;51.076;3.706;2022-10-04T13:32:25;14.75;;;4.75;;
32734;SDS011;19112;51.076;3.706;2022-10-04T13:35:19;13.90;;;5.43;;
32734;SDS011;19112;51.076;3.706;2022-10-04T13:38:05;16.48;;;5.00;;
32734;SDS011;19112;51.076;3.706;2022-10-04T13:41:03;18.83;;;5.35;;
32734;SDS011;19112;51.076;3.706;2022-10-04T13:44:23;15.07;;;5.18;;
32734;SDS011;19112;51.076;3.706;2022-10-04T14:16:55;17.05;;;5.85;;
32734;SDS011;19112;51.076;3.706;2022-10-04T14:25:43;15.98;;;5.68;;
32734;SDS011;19112;51.076;3.706;2022-10-04T14:28:43;13.63;;;5.03;;
32734;SDS011;19112;51.076;3.706;2022-10-04T14:49:16;12.65;;;4.78;;
32734;SDS011;19112;51.076;3.706;2022-10-04T14:52:57;12.43;;;5.15;;
32734;SDS011;19112;51.076;3.706;2022-10-04T15:07:02;14.20;;;4.57;;
32734;SDS011;19112;51.076;3.706;2022-10-04T15:10:04;14.50;;;3.80;;
32734;SDS011;19112;51.076;3.706;2022-10-04T15:18:52;10.27;;;4.03;;
32734;SDS011;19112;51.076;3.706;2022-10-04T15:21:38;10.68;;;4.80;;
32734;SDS011;19112;51.076;3.706;2022-10-04T15:27:21;12.95;;;4.60;;
32734;SDS011;19112;51.076;3.706;2022-10-04T15:33:07;13.35;;;4.80;;
32734;SDS011;19112;51.076;3.706;2022-10-04T15:36:07;13.00;;;4.30;;
32734;SDS011;19112;51.076;3.706;2022-10-04T15:38:48;10.68;;;4.70;;
32734;SDS011;19112;51.076;3.706;2022-10-04T15:47:22;10.02;;;4.43;;
32734;SDS011;19112;51.076;3.706;2022-10-04T15:50:55;9.98;;;4.22;;
32734;SDS011;19112;51.076;3.706;2022-10-04T15:57:16;10.68;;;4.70;;
32734;SDS011;19112;51.076;3.706;2022-10-04T15:59:50;14.63;;;5.38;;
32734;SDS011;19112;51.076;3.706;2022-10-04T16:05:32;12.95;;;5.05;;
32734;SDS011;19112;51.076;3.706;2022-10-04T16:17:18;17.40;;;5.32;;
32734;SDS011;19112;51.076;3.706;2022-10-04T16:22:33;13.57;;;5.70;;
32734;SDS011;19112;51.076;3.706;2022-10-04T16:30:22;17.90;;;6.45;;
32734;SDS011;19112;51.076;3.706;2022-10-04T16:35:30;14.50;;;5.35;;
32734;SDS011;19112;51.076;3.706;2022-10-04T16:46:02;13.55;;;5.57;;
32734;SDS011;19112;51.076;3.706;2022-10-04T16:48:59;20.60;;;5.93;;
32734;SDS011;19112;51.076;3.706;2022-10-04T16:57:44;16.45;;;6.47;;
32734;SDS011;19112;51.076;3.706;2022-10-04T17:06:59;15.93;;;6.35;;
32734;SDS011;19112;51.076;3.706;2022-10-04T17:24:25;17.15;;;6.10;;
32734;SDS011;19112;51.076;3.706;2022-10-04T17:30:16;15.45;;;6.15;;
32734;SDS011;19112;51.076;3.706;2022-10-04T17:36:14;17.02;;;6.93;;
32734;SDS011;19112;51.076;3.706;2022-10-04T17:38:57;15.52;;;6.07;;
32734;SDS011;19112;51.076;3.706;2022-10-04T17:41:54;20.05;;;6.40;;
32734;SDS011;19112;51.076;3.706;2022-10-04T17:47:59;19.15;;;6.70;;
32734;SDS011;19112;51.076;3.706;2022-10-04T17:51:00;20.98;;;8.18;;
32734;SDS011;19112;51.076;3.706;2022-10-04T17:54:15;21.50;;;8.55;;
32734;SDS011;19112;51.076;3.706;2022-10-04T18:06:26;16.48;;;6.50;;
32734;SDS011;19112;51.076;3.706;2022-10-04T18:11:50;16.52;;;6.45;;
32734;SDS011;19112;51.076;3.706;2022-10-04T18:14:46;17.83;;;6.45;;
32734;SDS011;19112;51.076;3.706;2022-10-04T18:17:44;18.95;;;6.22;;
32734;SDS011;19112;51.076;3.706;2022-10-04T18:20:24;16.23;;;6.10;;
32734;SDS011;19112;51.076;3.706;2022-10-04T18:22:59;16.27;;;6.50;;
32734;SDS011;19112;51.076;3.706;2022-10-04T18:25:39;17.88;;;7.15;;
32734;SDS011;19112;51.076;3.706;2022-10-04T18:30:53;17.52;;;6.50;;
32734;SDS011;19112;51.076;3.706;2022-10-04T18:36:16;20.45;;;7.38;;
32734;SDS011;19112;51.076;3.706;2022-10-04T18:38:57;14.85;;;6.32;;
32734;SDS011;19112;51.076;3.706;2022-10-04T18:41:27;19.42;;;6.72;;
32734;SDS011;19112;51.076;3.706;2022-10-04T18:44:15;16.13;;;7.03;;
32734;SDS011;19112;51.076;3.706;2022-10-04T18:46:46;16.23;;;6.43;;
32734;SDS011;19112;51.076;3.706;2022-10-04T18:49:19;22.27;;;7.22;;
32734;SDS011;19112;51.076;3.706;2022-10-04T18:54:57;15.55;;;6.88;;
32734;SDS011;19112;51.076;3.706;2022-10-04T19:00:24;18.23;;;7.03;;
32734;SDS011;19112;51.076;3.706;2022-10-04T19:03:25;17.00;;;7.13;;
32734;SDS011;19112;51.076;3.706;2022-10-04T19:06:35;16.13;;;6.75;;
32734;SDS011;19112;51.076;3.706;2022-10-04T19:12:14;17.85;;;7.00;;
32734;SDS011;19112;51.076;3.706;2022-10-04T19:15:06;19.48;;;6.50;;
32734;SDS011;19112;51.076;3.706;2022-10-04T19:20:43;19.00;;;7.35;;
32734;SDS011;19112;51.076;3.706;2022-10-04T19:26:16;19.20;;;7.95;;
32734;SDS011;19112;51.076;3.706;2022-10-04T19:29:11;18.55;;;7.00;;
32734;SDS011;19112;51.076;3.706;2022-10-04T19:32:09;18.45;;;7.22;;
32734;SDS011;19112;51.076;3.706;2022-10-04T19:49:13;18.80;;;7.47;;
32734;SDS011;19112;51.076;3.706;2022-10-04T19:54:59;23.23;;;7.20;;
32734;SDS011;19112;51.076;3.706;2022-10-04T19:57:52;18.85;;;7.93;;
32734;SDS011;19112;51.076;3.706;2022-10-04T20:00:41;17.75;;;7.47;;
32734;SDS011;19112;51.076;3.706;2022-10-04T20:03:10;17.30;;;7.82;;
32734;SDS011;19112;51.076;3.706;2022-10-04T20:05:47;17.50;;;7.53;;
32734;SDS011;19112;51.076;3.706;2022-10-04T20:08:43;19.63;;;7.90;;
32734;SDS011;19112;51.076;3.706;2022-10-04T20:11:15;19.75;;;7.38;;
32734;SDS011;19112;51.076;3.706;2022-10-04T20:19:16;21.90;;;8.05;;
32734;SDS011;19112;51.076;3.706;2022-10-04T20:27:05;20.73;;;8.50;;
32734;SDS011;19112;51.076;3.706;2022-10-04T20:34:51;21.02;;;8.50;;
32734;SDS011;19112;51.076;3.706;2022-10-04T20:37:19;20.90;;;7.60;;
32734;SDS011;19112;51.076;3.706;2022-10-04T20:42:14;19.08;;;7.45;;
32734;SDS011;19112;51.076;3.706;2022-10-04T20:44:56;18.73;;;7.93;;
32734;SDS011;19112;51.076;3.706;2022-10-04T20:47:53;21.48;;;8.15;;
32734;SDS011;19112;51.076;3.706;2022-10-04T20:50:32;19.65;;;7.55;;
32734;SDS011;19112;51.076;3.706;2022-10-04T20:53:26;19.48;;;8.13;;
32734;SDS011;19112;51.076;3.706;2022-10-04T20:58:58;18.67;;;7.65;;
32734;SDS011;19112;51.076;3.706;2022-10-04T21:01:33;24.48;;;8.68;;
32734;SDS011;19112;51.076;3.706;2022-10-04T21:06:49;22.10;;;8.63;;
32734;SDS011;19112;51.076;3.706;2022-10-04T21:09:19;23.85;;;9.18;;
32734;SDS011;19112;51.076;3.706;2022-10-04T21:11:46;21.98;;;8.68;;
32734;SDS011;19112;51.076;3.706;2022-10-04T21:14:34;21.02;;;8.23;;
32734;SDS011;19112;51.076;3.706;2022-10-04T21:19:52;20.98;;;8.02;;
32734;SDS011;19112;51.076;3.706;2022-10-04T21:30:04;18.05;;;7.63;;
32734;SDS011;19112;51.076;3.706;2022-10-04T21:32:37;18.30;;;7.63;;
32734;SDS011;19112;51.076;3.706;2022-10-04T21:35:04;20.55;;;8.27;;
32734;SDS011;19112;51.076;3.706;2022-10-04T21:37:32;19.92;;;8.20;;
32734;SDS011;19112;51.076;3.706;2022-10-04T21:39:58;21.50;;;9.05;;
32734;SDS011;19112;51.076;3.706;2022-10-04T21:42:25;19.83;;;8.20;;
32734;SDS011;19112;51.076;3.706;2022-10-04T21:44:51;20.65;;;8.80;;
32734;SDS011;19112;51.076;3.706;2022-10-04T21:47:17;22.10;;;9.20;;
32734;SDS011;19112;51.076;3.706;2022-10-04T21:49:45;20.45;;;8.18;;
32734;SDS011;19112;51.076;3.706;2022-10-04T21:52:12;20.30;;;8.35;;
32734;SDS011;19112;51.076;3.706;2022-10-04T21:54:38;21.40;;;8.60;;
32734;SDS011;19112;51.076;3.706;2022-10-04T21:57:04;19.58;;;8.80;;
32734;SDS011;19112;51.076;3.706;2022-10-04T21:59:29;20.58;;;8.55;;
32734;SDS011;19112;51.076;3.706;2022-10-04T22:01:55;19.15;;;7.93;;
32734;SDS011;19112;51.076;3.706;2022-10-04T22:04:21;22.13;;;7.97;;
32734;SDS011;19112;51.076;3.706;2022-10-04T22:06:46;21.95;;;7.57;;
32734;SDS011;19112;51.076;3.706;2022-10-04T22:09:12;19.63;;;7.50;;
32734;SDS011;19112;51.076;3.706;2022-10-04T22:11:38;18.40;;;7.22;;
32734;SDS011;19112;51.076;3.706;2022-10-04T22:14:04;16.42;;;6.70;;
32734;SDS011;19112;51.076;3.706;2022-10-04T22:16:29;20.35;;;7.25;;
32734;SDS011;19112;51.076;3.706;2022-10-04T22:18:55;16.27;;;7.13;;
32734;SDS011;19112;51.076;3.706;2022-10-04T22:21:21;20.73;;;7.35;;
32734;SDS011;19112;51.076;3.706;2022-10-04T22:23:47;16.45;;;7.00;;
32734;SDS011;19112;51.076;3.706;2022-10-04T22:26:14;20.50;;;7.13;;
32734;SDS011;19112;51.076;3.706;2022-10-04T22:28:43;18.33;;;7.30;;
32734;SDS011;19112;51.076;3.706;2022-10-04T22:31:16;18.30;;;8.07;;
32734;SDS011;19112;51.076;3.706;2022-10-04T22:33:47;19.27;;;7.80;;
32734;SDS011;19112;51.076;3.706;2022-10-04T22:41:28;18.42;;;7.20;;
32734;SDS011;19112;51.076;3.706;2022-10-04T22:46:38;18.77;;;8.05;;
32734;SDS011;19112;51.076;3.706;2022-10-04T22:49:10;23.08;;;8.52;;
32734;SDS011;19112;51.076;3.706;2022-10-04T22:51:40;19.45;;;8.43;;
32734;SDS011;19112;51.076;3.706;2022-10-04T22:54:13;21.30;;;8.65;;
32734;SDS011;19112;51.076;3.706;2022-10-04T22:56:42;24.63;;;9.00;;
32734;SDS011;19112;51.076;3.706;2022-10-04T22:59:08;18.50;;;8.15;;
32734;SDS011;19112;51.076;3.706;2022-10-04T23:01:36;21.17;;;8.40;;
32734;SDS011;19112;51.076;3.706;2022-10-04T23:04:02;22.38;;;8.23;;
32734;SDS011;19112;51.076;3.706;2022-10-04T23:06:37;23.20;;;8.55;;
32734;SDS011;19112;51.076;3.706;2022-10-04T23:09:03;20.33;;;8.30;;
32734;SDS011;19112;51.076;3.706;2022-10-04T23:11:31;19.25;;;8.23;;
32734;SDS011;19112;51.076;3.706;2022-10-04T23:13:57;22.40;;;8.52;;
32734;SDS011;19112;51.076;3.706;2022-10-04T23:16:23;22.13;;;9.63;;
32734;SDS011;19112;51.076;3.706;2022-10-04T23:18:49;19.13;;;8.30;;
32734;SDS011;19112;51.076;3.706;2022-10-04T23:21:23;22.27;;;9.27;;
32734;SDS011;19112;51.076;3.706;2022-10-04T23:23:54;20.60;;;8.15;;
32734;SDS011;19112;51.076;3.706;2022-10-04T23:26:34;19.92;;;8.13;;
32734;SDS011;19112;51.076;3.706;2022-10-04T23:29:06;19.85;;;8.15;;
32734;SDS011;19112;51.076;3.706;2022-10-04T23:31:50;23.38;;;9.38;;
32734;SDS011;19112;51.076;3.706;2022-10-04T23:34:26;20.35;;;7.95;;
32734;SDS011;19112;51.076;3.706;2022-10-04T23:36:57;20.98;;;8.05;;
32734;SDS011;19112;51.076;3.706;2022-10-04T23:39:24;17.80;;;7.60;;
32734;SDS011;19112;51.076;3.706;2022-10-04T23:41:54;17.23;;;6.72;;
32734;SDS011;19112;51.076;3.706;2022-10-04T23:44:21;21.67;;;7.43;;
32734;SDS011;19112;51.076;3.706;2022-10-04T23:46:50;17.85;;;6.63;;
32734;SDS011;19112;51.076;3.706;2022-10-04T23:49:16;22.58;;;7.97;;
32734;SDS011;19112;51.076;3.706;2022-10-04T23:51:44;23.63;;;7.88;;
32734;SDS011;19112;51.076;3.706;2022-10-04T23:54:14;22.15;;;7.72;;
32734;SDS011;19112;51.076;3.706;2022-10-04T23:56:42;18.08;;;7.43;;
32734;SDS011;19112;51.076;3.706;2022-10-04T23:59:16;18.33;;;7.35;;
